createdAt,value
2019-05-05T00:02:04.521Z,50.20
2019-05-05T00:04:54.416Z,50.10
2019-05-05T00:07:25.389Z,49.80
2019-05-05T00:09:55.136Z,50.00
2019-05-05T00:12:28.938Z,50.00
2019-05-05T00:15:01.636Z,50.00
2019-05-05T00:17:31.272Z,49.90
2019-05-05T00:20:00.124Z,50.30
2019-05-05T00:22:28.580Z,50.20
2019-05-05T00:24:57.035Z,50.20
2019-05-05T00:27:25.927Z,50.30
2019-05-05T00:29:54.834Z,50.20
2019-05-05T00:32:24.530Z,50.20
2019-05-05T00:34:55.122Z,50.20
2019-05-05T00:37:25.661Z,49.90
2019-05-05T00:39:54.380Z,50.10
2019-05-05T00:42:24.758Z,49.90
2019-05-05T00:44:54.890Z,50.10
2019-05-05T00:47:39.831Z,50.10
2019-05-05T00:50:10.629Z,50.90
2019-05-05T00:52:39.091Z,50.30
2019-05-05T00:55:08.474Z,50.20
2019-05-05T00:57:36.928Z,50.30
2019-05-05T01:00:15.981Z,50.20
2019-05-05T01:02:48.736Z,50.30
2019-05-05T01:05:28.109Z,50.10
2019-05-05T01:07:56.727Z,50.10
2019-05-05T01:10:25.554Z,50.00
2019-05-05T01:12:54.531Z,50.00
2019-05-05T01:15:42.410Z,50.20
2019-05-05T01:18:11.080Z,50.20
2019-05-05T01:20:39.859Z,50.40
2019-05-05T01:23:08.317Z,50.30
2019-05-05T01:25:36.834Z,50.30
2019-05-05T01:28:05.628Z,50.30
2019-05-05T01:30:37.045Z,50.30
2019-05-05T01:33:10.364Z,50.20
2019-05-05T01:35:38.826Z,50.00
2019-05-05T01:38:08.939Z,49.90
2019-05-05T01:40:39.180Z,50.20
2019-05-05T01:43:07.996Z,50.00
2019-05-05T01:45:36.783Z,51.00
2019-05-05T01:48:05.498Z,50.20
2019-05-05T01:50:34.939Z,50.40
2019-05-05T01:53:04.766Z,50.50
2019-05-05T01:55:34.715Z,50.50
2019-05-05T01:58:04.772Z,50.40
2019-05-05T02:00:34.808Z,50.30
2019-05-05T02:03:04.509Z,50.30
2019-05-05T02:05:34.795Z,50.20
2019-05-05T02:08:04.989Z,50.20
2019-05-05T02:10:34.857Z,50.20
2019-05-05T02:13:04.630Z,50.10
2019-05-05T02:15:34.377Z,50.30
2019-05-05T02:18:04.550Z,50.20
2019-05-05T02:20:40.197Z,50.30
2019-05-05T02:23:10.019Z,50.40
2019-05-05T02:25:38.539Z,50.80
2019-05-05T02:28:07.217Z,50.40
2019-05-05T02:30:47.133Z,50.30
2019-05-05T02:33:17.022Z,50.30
2019-05-05T02:35:46.109Z,50.20
2019-05-05T02:38:15.650Z,50.10
2019-05-05T02:40:47.376Z,50.10
2019-05-05T02:43:18.433Z,50.00
2019-05-05T02:45:55.173Z,50.20
2019-05-05T02:48:25.773Z,50.20
2019-05-05T02:51:01.811Z,50.40
2019-05-05T02:53:33.992Z,50.40
2019-05-05T02:56:05.569Z,50.30
2019-05-05T02:58:37.818Z,50.40
2019-05-05T03:01:13.892Z,50.40
2019-05-05T03:03:43.821Z,50.40
2019-05-05T03:06:14.371Z,50.10
2019-05-05T03:08:43.968Z,50.10
2019-05-05T03:11:15.449Z,50.30
2019-05-05T03:13:45.435Z,50.40
2019-05-05T03:16:20.540Z,50.10
2019-05-05T03:18:50.105Z,50.30
2019-05-05T03:21:20.658Z,50.40
2019-05-05T03:23:49.439Z,50.40
2019-05-05T03:26:18.360Z,50.40
2019-05-05T03:28:49.406Z,50.40
2019-05-05T03:31:18.576Z,50.50
2019-05-05T03:33:47.225Z,50.50
2019-05-05T03:36:15.680Z,50.30
2019-05-05T03:38:45.718Z,50.30
2019-05-05T03:41:23.942Z,50.30
2019-05-05T03:44:10.952Z,50.40
2019-05-05T03:46:39.683Z,50.30
2019-05-05T03:49:08.299Z,50.40
2019-05-05T03:51:38.026Z,50.70
2019-05-05T03:54:07.274Z,50.70
2019-05-05T03:56:36.097Z,50.70
2019-05-05T03:59:05.686Z,50.70
2019-05-05T04:01:45.594Z,50.60
2019-05-05T04:04:24.819Z,50.70
2019-05-05T04:07:00.607Z,50.40
2019-05-05T04:09:29.649Z,50.40
2019-05-05T04:11:58.500Z,50.60
2019-05-05T04:14:26.948Z,50.60
2019-05-05T04:17:09.520Z,50.40
2019-05-05T04:19:43.644Z,51.20
2019-05-05T04:22:13.542Z,50.90
2019-05-05T04:24:43.563Z,50.70
2019-05-05T04:27:14.456Z,50.70
2019-05-05T04:29:43.947Z,50.70
2019-05-05T04:32:14.012Z,50.70
2019-05-05T04:34:43.932Z,50.60
2019-05-05T04:37:14.930Z,50.40
2019-05-05T04:39:44.370Z,50.50
2019-05-05T04:42:14.137Z,50.50
2019-05-05T04:44:44.979Z,50.40
2019-05-05T04:47:14.790Z,50.60
2019-05-05T04:50:04.334Z,50.80
2019-05-05T04:52:34.306Z,50.70
2019-05-05T04:55:03.960Z,50.70
2019-05-05T04:57:32.579Z,50.90
2019-05-05T05:00:01.291Z,50.80
2019-05-05T05:02:47.714Z,50.70
2019-05-05T05:05:33.740Z,50.70
2019-05-05T05:08:03.740Z,51.00
2019-05-05T05:10:34.460Z,50.70
2019-05-05T05:13:04.514Z,50.30
2019-05-05T05:15:34.034Z,51.20
2019-05-05T05:18:04.382Z,50.40
2019-05-05T05:20:34.010Z,50.50
2019-05-05T05:23:03.683Z,50.30
2019-05-05T05:25:34.481Z,50.40
2019-05-05T05:28:04.210Z,50.60
2019-05-05T05:30:34.697Z,50.40
2019-05-05T05:33:04.368Z,50.30
2019-05-05T05:35:33.647Z,50.60
2019-05-05T05:38:04.399Z,50.50
2019-05-05T05:40:34.563Z,50.60
2019-05-05T05:43:04.892Z,50.50
2019-05-05T05:45:41.268Z,50.40
2019-05-05T05:48:14.532Z,50.40
2019-05-05T05:50:53.549Z,50.50
2019-05-05T05:53:21.596Z,50.60
2019-05-05T05:55:50.054Z,50.30
2019-05-05T05:58:18.689Z,50.30
2019-05-05T06:00:47.265Z,50.70
2019-05-05T06:03:15.721Z,50.40
2019-05-05T06:05:44.547Z,50.70
2019-05-05T06:08:14.122Z,50.20
2019-05-05T06:10:44.285Z,50.50
2019-05-05T06:13:15.457Z,50.60
2019-05-05T06:15:44.362Z,50.80
2019-05-05T06:18:13.764Z,50.70
2019-05-05T06:20:44.562Z,50.60
2019-05-05T06:23:14.905Z,50.70
2019-05-05T06:25:44.596Z,50.70
2019-05-05T06:28:14.467Z,51.40
2019-05-05T06:30:44.299Z,50.90
2019-05-05T06:33:13.813Z,50.60
2019-05-05T06:35:44.227Z,50.40
2019-05-05T06:38:13.662Z,50.60
2019-05-05T06:40:49.949Z,50.70
2019-05-05T06:43:23.736Z,50.90
2019-05-05T06:46:00.944Z,50.90
2019-05-05T06:48:29.464Z,50.90
2019-05-05T06:50:58.211Z,50.80
2019-05-05T06:53:26.695Z,50.80
2019-05-05T06:55:55.222Z,51.20
2019-05-05T06:58:24.129Z,50.60
2019-05-05T07:00:54.319Z,50.30
2019-05-05T07:03:24.337Z,50.10
2019-05-05T07:05:53.933Z,50.40
2019-05-05T07:08:24.389Z,50.20
2019-05-05T07:10:54.838Z,50.40
2019-05-05T07:13:24.438Z,50.20
2019-05-05T07:15:54.258Z,50.20
2019-05-05T07:18:24.687Z,50.10
2019-05-05T07:20:54.518Z,50.10
2019-05-05T07:23:24.593Z,50.00
2019-05-05T07:25:54.956Z,50.10
2019-05-05T07:28:23.561Z,50.40
2019-05-05T07:30:54.580Z,50.30
2019-05-05T07:33:23.878Z,50.30
2019-05-05T07:36:10.807Z,50.30
2019-05-05T07:38:39.647Z,50.50
2019-05-05T07:41:08.308Z,50.80
2019-05-05T07:43:36.794Z,51.00
2019-05-05T07:46:05.259Z,50.80
2019-05-05T07:48:33.728Z,50.80
2019-05-05T07:51:05.178Z,50.80
2019-05-05T07:53:33.564Z,50.80
2019-05-05T07:56:03.947Z,50.80
2019-05-05T07:58:34.534Z,50.80
2019-05-05T08:01:04.659Z,50.80
2019-05-05T08:03:33.888Z,50.70
2019-05-05T08:06:03.968Z,51.20
2019-05-05T08:08:33.508Z,50.90
2019-05-05T08:11:04.648Z,50.80
2019-05-05T08:13:33.647Z,50.70
2019-05-05T08:16:03.949Z,50.80
2019-05-05T08:18:50.424Z,50.90
2019-05-05T08:21:19.025Z,50.90
2019-05-05T08:23:58.212Z,50.90
2019-05-05T08:26:40.163Z,51.00
2019-05-05T08:29:26.513Z,50.80
2019-05-05T08:32:16.035Z,50.90
2019-05-05T08:34:57.401Z,50.90
2019-05-05T08:37:14.845Z,50.90
2019-05-05T08:39:44.653Z,50.80
2019-05-05T08:42:14.418Z,50.80
2019-05-05T08:44:44.715Z,50.70
2019-05-05T08:47:13.961Z,50.90
2019-05-05T08:49:44.230Z,50.90
2019-05-05T08:52:14.558Z,50.90
2019-05-05T08:54:44.649Z,50.90
2019-05-05T08:57:14.700Z,50.80
2019-05-05T08:59:43.988Z,50.70
2019-05-05T09:02:14.759Z,50.60
2019-05-05T09:04:44.686Z,50.50
2019-05-05T09:07:13.852Z,50.40
2019-05-05T09:09:44.295Z,50.20
2019-05-05T09:12:13.916Z,50.30
2019-05-05T09:14:44.771Z,50.40
2019-05-05T09:17:13.707Z,50.50
2019-05-05T09:19:44.726Z,50.60
2019-05-05T09:22:13.966Z,50.50
2019-05-05T09:24:44.582Z,50.60
2019-05-05T09:27:14.996Z,50.50
2019-05-05T09:29:44.149Z,50.50
2019-05-05T09:32:13.886Z,50.50
2019-05-05T09:34:43.623Z,50.30
2019-05-05T09:37:14.208Z,50.50
2019-05-05T09:39:43.703Z,50.40
2019-05-05T09:42:14.572Z,50.20
2019-05-05T09:44:43.769Z,50.40
2019-05-05T09:47:13.689Z,50.10
2019-05-05T09:49:44.587Z,50.10
2019-05-05T09:52:13.983Z,50.40
2019-05-05T09:54:43.896Z,50.50
2019-05-05T09:57:14.479Z,53.10
2019-05-05T09:59:44.130Z,52.10
2019-05-05T10:02:13.228Z,53.10
2019-05-05T10:04:43.910Z,52.40
2019-05-05T10:07:13.772Z,51.90
2019-05-05T10:09:43.812Z,52.20
2019-05-05T10:12:12.957Z,53.10
2019-05-05T10:14:41.509Z,52.30
2019-05-05T10:17:09.967Z,52.10
2019-05-05T10:19:38.432Z,52.40
2019-05-05T10:22:06.881Z,52.40
2019-05-05T10:24:37.064Z,53.00
2019-05-05T10:27:05.728Z,52.80
2019-05-05T10:29:34.271Z,52.50
2019-05-05T10:32:04.716Z,52.50
2019-05-05T10:34:33.644Z,52.50
2019-05-05T10:37:04.031Z,53.00
2019-05-05T10:39:37.117Z,53.60
2019-05-05T10:42:05.972Z,56.30
2019-05-05T10:44:34.528Z,56.20
2019-05-05T10:47:04.563Z,56.90
2019-05-05T10:49:33.816Z,56.90
2019-05-05T10:52:03.695Z,57.60
2019-05-05T10:54:43.216Z,57.90
2019-05-05T10:57:04.066Z,58.40
2019-05-05T10:59:34.335Z,58.60
2019-05-05T11:02:04.911Z,59.00
2019-05-05T11:04:33.717Z,58.10
2019-05-05T11:07:04.233Z,57.60
2019-05-05T11:09:33.902Z,56.70
2019-05-05T11:12:03.071Z,57.90
2019-05-05T11:14:33.534Z,58.60
2019-05-05T11:17:04.144Z,58.50
2019-05-05T11:19:33.574Z,58.90
2019-05-05T11:22:02.392Z,58.90
2019-05-05T11:24:30.859Z,58.60
2019-05-05T11:27:00.387Z,58.90
2019-05-05T11:29:28.839Z,58.90
2019-05-05T11:31:59.223Z,58.80
2019-05-05T11:34:28.264Z,57.40
2019-05-05T11:36:58.370Z,55.30
2019-05-05T11:39:26.901Z,55.30
2019-05-05T11:41:55.754Z,55.10
2019-05-05T11:44:24.424Z,58.20
2019-05-05T11:46:54.663Z,58.60
2019-05-05T11:49:24.527Z,57.70
2019-05-05T11:51:54.259Z,57.80
2019-05-05T11:54:24.513Z,57.50
2019-05-05T11:56:53.980Z,57.80
2019-05-05T11:59:23.725Z,57.80
2019-05-05T12:01:54.989Z,57.90
2019-05-05T12:04:24.088Z,57.10
2019-05-05T12:06:52.758Z,55.30
2019-05-05T12:09:24.814Z,54.10
2019-05-05T12:11:54.549Z,53.80
2019-05-05T12:14:27.107Z,57.40
2019-05-05T12:16:55.361Z,57.60
2019-05-05T12:19:24.471Z,57.20
2019-05-05T12:21:54.754Z,57.10
2019-05-05T12:24:25.277Z,57.30
2019-05-05T12:26:58.675Z,57.10
2019-05-05T12:29:27.274Z,57.40
2019-05-05T12:31:56.756Z,57.00
2019-05-05T12:34:25.441Z,56.20
2019-05-05T12:36:54.123Z,55.30
2019-05-05T12:39:22.968Z,54.70
2019-05-05T12:41:51.591Z,54.60
2019-05-05T12:44:23.571Z,56.60
2019-05-05T12:46:53.514Z,57.00
2019-05-05T12:49:23.417Z,57.10
2019-05-05T12:51:54.054Z,56.40
2019-05-05T12:54:24.403Z,57.10
2019-05-05T12:56:53.864Z,57.50
2019-05-05T12:59:24.889Z,57.90
2019-05-05T13:01:54.788Z,58.00
2019-05-05T13:04:24.569Z,56.90
2019-05-05T13:06:54.010Z,55.90
2019-05-05T13:09:24.348Z,55.80
2019-05-05T13:11:54.271Z,55.70
2019-05-05T13:14:22.833Z,57.00
2019-05-05T13:16:53.965Z,57.80
2019-05-05T13:19:24.231Z,57.40
2019-05-05T13:21:54.676Z,57.20
2019-05-05T13:24:24.775Z,56.90
2019-05-05T13:26:54.989Z,57.30
2019-05-05T13:29:24.645Z,58.10
2019-05-05T13:31:54.397Z,56.90
2019-05-05T13:34:23.118Z,56.90
2019-05-05T13:36:51.728Z,56.10
2019-05-05T13:39:20.590Z,55.70
2019-05-05T13:41:49.078Z,54.90
2019-05-05T13:44:19.176Z,54.90
2019-05-05T13:46:47.623Z,57.30
2019-05-05T13:49:29.720Z,56.20
2019-05-05T13:52:00.180Z,56.10
2019-05-05T13:54:28.634Z,56.20
2019-05-05T13:56:57.534Z,56.40
2019-05-05T13:59:26.178Z,56.30
2019-05-05T14:01:54.912Z,56.40
2019-05-05T14:04:23.593Z,56.40
2019-05-05T14:06:52.050Z,55.90
2019-05-05T14:09:20.537Z,56.10
2019-05-05T14:11:49.244Z,55.40
2019-05-05T14:14:17.693Z,55.20
2019-05-05T14:16:46.152Z,55.60
2019-05-05T14:19:14.858Z,55.50
2019-05-05T14:21:44.618Z,55.30
2019-05-05T14:24:21.450Z,55.30
2019-05-05T14:26:49.907Z,55.40
2019-05-05T14:29:36.799Z,55.40
2019-05-05T14:32:06.889Z,55.50
2019-05-05T14:34:39.842Z,56.30
2019-05-05T14:37:26.220Z,55.80
2019-05-05T14:39:56.121Z,55.70
2019-05-05T14:42:24.583Z,55.40
2019-05-05T14:44:54.569Z,56.20
2019-05-05T14:47:24.451Z,56.30
2019-05-05T14:49:54.043Z,55.80
2019-05-05T14:52:24.632Z,55.90
2019-05-05T14:54:54.448Z,56.70
2019-05-05T14:57:24.934Z,57.30
2019-05-05T14:59:54.159Z,57.40
2019-05-05T15:02:24.379Z,57.40
2019-05-05T15:04:53.995Z,57.00
2019-05-05T15:07:25.092Z,57.00
2019-05-05T15:10:11.395Z,56.70
2019-05-05T15:12:50.676Z,56.70
2019-05-05T15:15:19.379Z,55.60
2019-05-05T15:17:47.934Z,55.40
2019-05-05T15:20:16.856Z,55.80
2019-05-05T15:22:45.306Z,57.60
2019-05-05T15:25:13.984Z,55.70
2019-05-05T15:27:45.022Z,55.70
2019-05-05T15:30:14.095Z,55.70
2019-05-05T15:32:43.815Z,55.60
2019-05-05T15:35:14.167Z,56.30
2019-05-05T15:37:43.663Z,56.30
2019-05-05T15:40:14.308Z,56.10
2019-05-05T15:42:43.954Z,55.90
2019-05-05T15:45:12.971Z,55.60
2019-05-05T15:47:43.405Z,55.10
2019-05-05T15:50:13.803Z,55.20
2019-05-05T15:52:44.067Z,55.00
2019-05-05T15:55:14.061Z,55.00
2019-05-05T15:57:44.296Z,54.90
2019-05-05T16:00:14.656Z,54.70
2019-05-05T16:02:44.132Z,54.10
2019-05-05T16:05:13.817Z,55.70
2019-05-05T16:07:43.954Z,55.60
2019-05-05T16:10:13.720Z,55.40
2019-05-05T16:12:44.806Z,55.40
2019-05-05T16:15:15.767Z,55.10
2019-05-05T16:18:01.841Z,55.30
2019-05-05T16:20:48.449Z,55.70
2019-05-05T16:23:35.920Z,56.40
2019-05-05T16:26:04.576Z,55.90
2019-05-05T16:28:34.267Z,55.20
2019-05-05T16:31:05.409Z,55.90
2019-05-05T16:33:33.597Z,56.80
2019-05-05T16:36:02.054Z,55.60
2019-05-05T16:38:30.556Z,54.70
2019-05-05T16:41:00.452Z,54.90
2019-05-05T16:43:28.895Z,55.00
2019-05-05T16:45:57.364Z,55.10
2019-05-05T16:48:25.865Z,54.80
2019-05-05T16:50:54.744Z,55.60
2019-05-05T16:53:36.661Z,55.90
2019-05-05T16:56:05.463Z,55.90
2019-05-05T16:58:33.914Z,56.70
2019-05-05T17:01:03.811Z,56.10
2019-05-05T17:03:32.513Z,57.30
2019-05-05T17:06:01.035Z,55.80
2019-05-05T17:08:29.526Z,55.70
2019-05-05T17:10:58.163Z,55.40
2019-05-05T17:13:34.487Z,54.70
2019-05-05T17:16:21.235Z,55.60
2019-05-05T17:18:51.357Z,55.70
2019-05-05T17:21:21.552Z,56.00
2019-05-05T17:23:50.071Z,56.30
2019-05-05T17:26:18.547Z,56.30
2019-05-05T17:28:46.984Z,56.40
2019-05-05T17:31:15.463Z,56.50
2019-05-05T17:33:44.321Z,56.60
2019-05-05T17:36:13.970Z,56.20
2019-05-05T17:38:43.761Z,55.30
2019-05-05T17:41:17.204Z,55.50
2019-05-05T17:43:47.290Z,55.00
2019-05-05T17:46:17.501Z,55.40
2019-05-05T17:49:04.691Z,55.40
2019-05-05T17:51:44.276Z,55.70
2019-05-05T17:54:19.980Z,55.90
2019-05-05T17:56:48.456Z,56.30
2019-05-05T17:59:16.967Z,56.10
2019-05-05T18:01:45.833Z,56.20
2019-05-05T18:04:14.278Z,55.90
2019-05-05T18:07:01.000Z,55.50
2019-05-05T18:09:40.247Z,55.10
2019-05-05T18:12:10.424Z,55.00
2019-05-05T18:14:40.594Z,55.10
2019-05-05T18:17:09.059Z,55.30
2019-05-05T18:19:37.546Z,55.10
2019-05-05T18:22:08.254Z,55.00
2019-05-05T18:24:36.719Z,54.70
2019-05-05T18:27:05.429Z,54.70
2019-05-05T18:29:34.053Z,54.80
2019-05-05T18:32:04.324Z,54.80
2019-05-05T18:34:33.218Z,55.00
2019-05-05T18:37:03.620Z,54.50
2019-05-05T18:39:31.919Z,54.40
2019-05-05T18:42:04.236Z,54.20
2019-05-05T18:44:36.813Z,54.20
2019-05-05T18:47:18.996Z,54.20
2019-05-05T18:49:47.760Z,54.20
2019-05-05T18:52:16.281Z,54.20
2019-05-05T18:54:45.199Z,54.20
2019-05-05T18:57:13.765Z,54.30
2019-05-05T18:59:44.503Z,54.30
2019-05-05T19:02:14.425Z,54.30
2019-05-05T19:04:50.488Z,54.70
2019-05-05T19:07:35.874Z,54.20
2019-05-05T19:10:06.773Z,54.10
2019-05-05T19:12:35.431Z,54.10
2019-05-05T19:15:05.878Z,53.90
2019-05-05T19:17:34.586Z,54.00
2019-05-05T19:20:07.155Z,54.00
2019-05-05T19:22:36.139Z,53.70
2019-05-05T19:25:10.221Z,53.70
2019-05-05T19:27:38.668Z,53.80
2019-05-05T19:30:07.224Z,53.60
2019-05-05T19:32:36.932Z,53.60
2019-05-05T19:35:06.840Z,54.00
2019-05-05T19:37:35.426Z,53.70
2019-05-05T19:40:06.174Z,53.60
2019-05-05T19:42:34.700Z,53.50
2019-05-05T19:45:04.248Z,53.40
2019-05-05T19:47:34.061Z,53.40
2019-05-05T19:50:20.840Z,53.40
2019-05-05T19:52:49.307Z,53.50
2019-05-05T19:55:17.969Z,53.50
2019-05-05T19:57:46.574Z,53.50
2019-05-05T20:00:38.528Z,53.80
2019-05-05T20:03:06.286Z,53.50
2019-05-05T20:05:34.811Z,53.30
2019-05-05T20:08:03.920Z,53.20
2019-05-05T20:10:34.401Z,53.20
2019-05-05T20:13:04.854Z,53.10
2019-05-05T20:15:37.990Z,53.20
2019-05-05T20:18:06.514Z,53.10
2019-05-05T20:20:35.342Z,53.40
2019-05-05T20:23:04.250Z,53.30
2019-05-05T20:25:34.068Z,53.20
2019-05-05T20:28:03.925Z,53.20
2019-05-05T20:30:34.227Z,53.20
2019-05-05T20:33:04.624Z,53.10
2019-05-05T20:35:36.235Z,52.80
2019-05-05T20:38:09.483Z,52.60
2019-05-05T20:40:44.348Z,52.60
2019-05-05T20:43:14.372Z,52.60
2019-05-05T20:45:44.216Z,52.80
2019-05-05T20:48:13.021Z,52.80
2019-05-05T20:50:43.750Z,52.80
2019-05-05T20:53:13.630Z,52.80
2019-05-05T20:55:44.594Z,52.70
2019-05-05T20:58:14.098Z,52.80
2019-05-05T21:00:44.213Z,52.90
2019-05-05T21:03:14.234Z,53.00
2019-05-05T21:05:44.020Z,52.80
2019-05-05T21:08:14.163Z,52.70
2019-05-05T21:10:44.229Z,52.50
2019-05-05T21:13:14.409Z,52.30
2019-05-05T21:15:45.088Z,52.60
2019-05-05T21:18:14.386Z,52.60
2019-05-05T21:20:43.217Z,52.70
2019-05-05T21:23:19.081Z,52.70
2019-05-05T21:25:53.854Z,52.60
2019-05-05T21:28:24.072Z,52.70
2019-05-05T21:30:54.152Z,52.60
2019-05-05T21:33:23.939Z,52.70
2019-05-05T21:35:54.842Z,52.40
2019-05-05T21:38:22.715Z,52.50
2019-05-05T21:40:51.465Z,52.30
2019-05-05T21:43:19.984Z,52.40
2019-05-05T21:45:48.460Z,52.50
2019-05-05T21:48:16.903Z,52.50
2019-05-05T21:50:47.000Z,53.20
2019-05-05T21:53:17.336Z,52.50
2019-05-05T21:55:56.557Z,52.50
2019-05-05T21:58:26.657Z,52.40
2019-05-05T22:00:56.907Z,52.50
2019-05-05T22:03:35.671Z,52.40
2019-05-05T22:06:04.737Z,52.40
2019-05-05T22:08:33.763Z,52.40
2019-05-05T22:11:03.926Z,52.20
2019-05-05T22:13:36.190Z,52.50
2019-05-05T22:16:04.060Z,52.40
2019-05-05T22:18:33.253Z,52.30
2019-05-05T22:21:14.109Z,52.30
2019-05-05T22:23:44.128Z,52.20
2019-05-05T22:26:14.606Z,52.30
2019-05-05T22:28:44.512Z,52.30
2019-05-05T22:31:14.286Z,52.40
2019-05-05T22:33:44.678Z,53.00
2019-05-05T22:36:14.085Z,52.20
2019-05-05T22:38:44.573Z,52.30
2019-05-05T22:41:13.244Z,52.20
2019-05-05T22:43:44.269Z,52.20
2019-05-05T22:46:14.191Z,52.10
2019-05-05T22:48:44.000Z,51.90
2019-05-05T22:51:14.411Z,52.00
2019-05-05T22:53:44.095Z,52.10
2019-05-05T22:56:14.642Z,52.10
2019-05-05T22:58:43.901Z,52.10
2019-05-05T23:01:13.830Z,52.20
2019-05-05T23:04:00.661Z,52.30
2019-05-05T23:06:33.465Z,52.00
2019-05-05T23:09:04.000Z,51.90
2019-05-05T23:11:32.749Z,51.90
2019-05-05T23:14:19.102Z,52.10
2019-05-05T23:16:49.197Z,52.00
2019-05-05T23:19:17.717Z,51.70
2019-05-05T23:21:48.105Z,51.80
2019-05-05T23:24:34.478Z,51.90
2019-05-05T23:27:03.897Z,52.00
2019-05-05T23:29:34.136Z,52.10
2019-05-05T23:32:03.150Z,52.10
2019-05-05T23:34:33.715Z,52.10
2019-05-05T23:37:01.860Z,51.80
2019-05-05T23:39:30.425Z,51.60
2019-05-05T23:41:59.421Z,51.50
2019-05-05T23:44:27.889Z,51.80
2019-05-05T23:46:56.405Z,51.60
2019-05-05T23:49:24.873Z,51.60
2019-05-05T23:51:53.993Z,51.80
2019-05-05T23:54:24.638Z,51.90
2019-05-05T23:56:53.892Z,51.90
2019-05-05T23:59:24.062Z,51.80
